sensor_id;sensor_type;location;lat;lon;timestamp;pressure;altitude;pressure_sealevel;temperature;humidity
17309;BME280;8772;42.804;23.426;2022-12-07T00:01:40;74232.28;;;-140.58;100.00
17309;BME280;8772;42.804;23.426;2022-12-07T00:04:12;74215.88;;;-140.58;100.00
17309;BME280;8772;42.804;23.426;2022-12-07T00:06:41;74215.88;;;-140.58;100.00
17309;BME280;8772;42.804;23.426;2022-12-07T00:09:11;74219.97;;;-140.58;100.00
17309;BME280;8772;42.804;23.426;2022-12-07T00:11:39;74224.06;;;-140.58;100.00
17309;BME280;8772;42.804;23.426;2022-12-07T00:14:09;74219.97;;;-140.58;100.00
17309;BME280;8772;42.804;23.426;2022-12-07T00:16:36;74203.56;;;-140.58;100.00
17309;BME280;8772;42.804;23.426;2022-12-07T00:19:04;74211.75;;;-140.58;100.00
17309;BME280;8772;42.804;23.426;2022-12-07T00:21:33;74203.56;;;-140.58;100.00
17309;BME280;8772;42.804;23.426;2022-12-07T00:24:01;74195.34;;;-140.58;100.00
17309;BME280;8772;42.804;23.426;2022-12-07T00:26:29;74193.31;;;-140.58;100.00
17309;BME280;8772;42.804;23.426;2022-12-07T00:28:59;74187.16;;;-140.58;100.00
17309;BME280;8772;42.804;23.426;2022-12-07T00:31:28;74191.25;;;-140.58;100.00
17309;BME280;8772;42.804;23.426;2022-12-07T00:33:56;74187.16;;;-140.58;100.00
17309;BME280;8772;42.804;23.426;2022-12-07T00:36:24;74193.31;;;-140.58;100.00
17309;BME280;8772;42.804;23.426;2022-12-07T00:38:53;74193.31;;;-140.58;100.00
17309;BME280;8772;42.804;23.426;2022-12-07T00:41:21;74193.31;;;-140.58;100.00
17309;BME280;8772;42.804;23.426;2022-12-07T00:43:49;74197.41;;;-140.58;100.00
17309;BME280;8772;42.804;23.426;2022-12-07T00:46:17;74219.97;;;-140.58;100.00
17309;BME280;8772;42.804;23.426;2022-12-07T00:48:45;74211.75;;;-140.58;100.00
17309;BME280;8772;42.804;23.426;2022-12-07T00:51:14;74211.75;;;-140.58;100.00
17309;BME280;8772;42.804;23.426;2022-12-07T00:53:41;74219.97;;;-140.58;100.00
17309;BME280;8772;42.804;23.426;2022-12-07T00:56:12;74234.34;;;-140.58;100.00
17309;BME280;8772;42.804;23.426;2022-12-07T00:58:39;74222.03;;;-140.58;100.00
17309;BME280;8772;42.804;23.426;2022-12-07T01:01:07;74226.13;;;-140.58;100.00
17309;BME280;8772;42.804;23.426;2022-12-07T01:06:57;74226.13;;;-140.58;100.00
17309;BME280;8772;42.804;23.426;2022-12-07T01:09:24;74228.19;;;-140.58;100.00
17309;BME280;8772;42.804;23.426;2022-12-07T01:11:52;74232.28;;;-140.58;100.00
17309;BME280;8772;42.804;23.426;2022-12-07T01:14:19;74226.13;;;-140.58;100.00
17309;BME280;8772;42.804;23.426;2022-12-07T01:16:46;74222.03;;;-140.58;100.00
17309;BME280;8772;42.804;23.426;2022-12-07T01:19:12;74230.22;;;-140.58;100.00
17309;BME280;8772;42.804;23.426;2022-12-07T01:21:39;74224.06;;;-140.58;100.00
17309;BME280;8772;42.804;23.426;2022-12-07T01:24:09;74215.88;;;-140.58;100.00
17309;BME280;8772;42.804;23.426;2022-12-07T01:26:37;74224.06;;;-140.58;100.00
17309;BME280;8772;42.804;23.426;2022-12-07T01:29:05;74217.91;;;-140.58;100.00
17309;BME280;8772;42.804;23.426;2022-12-07T01:31:32;74215.88;;;-140.58;100.00
17309;BME280;8772;42.804;23.426;2022-12-07T01:34:00;74246.66;;;-140.58;100.00
17309;BME280;8772;42.804;23.426;2022-12-07T01:36:28;74236.38;;;-140.58;100.00
17309;BME280;8772;42.804;23.426;2022-12-07T01:38:58;74219.97;;;-140.58;100.00
17309;BME280;8772;42.804;23.426;2022-12-07T01:41:28;74219.97;;;-140.58;100.00
17309;BME280;8772;42.804;23.426;2022-12-07T01:44:15;74215.88;;;-140.58;100.00
17309;BME280;8772;42.804;23.426;2022-12-07T01:46:44;74226.13;;;-140.58;100.00
17309;BME280;8772;42.804;23.426;2022-12-07T01:49:16;74217.91;;;-140.58;100.00
17309;BME280;8772;42.804;23.426;2022-12-07T01:51:45;74213.81;;;-140.58;100.00
17309;BME280;8772;42.804;23.426;2022-12-07T01:54:14;74217.91;;;-140.58;100.00
17309;BME280;8772;42.804;23.426;2022-12-07T01:56:43;74211.75;;;-140.58;100.00
17309;BME280;8772;42.804;23.426;2022-12-07T01:59:13;74203.56;;;-140.58;100.00
17309;BME280;8772;42.804;23.426;2022-12-07T02:01:41;74209.72;;;-140.58;100.00
17309;BME280;8772;42.804;23.426;2022-12-07T02:04:08;74213.81;;;-140.58;100.00
17309;BME280;8772;42.804;23.426;2022-12-07T02:06:36;74228.19;;;-140.58;100.00
17309;BME280;8772;42.804;23.426;2022-12-07T02:09:04;74240.50;;;-140.58;100.00
17309;BME280;8772;42.804;23.426;2022-12-07T02:11:31;74271.25;;;-140.58;100.00
17309;BME280;8772;42.804;23.426;2022-12-07T02:13:58;74248.69;;;-140.58;100.00
17309;BME280;8772;42.804;23.426;2022-12-07T02:16:33;74256.91;;;-140.58;100.00
17309;BME280;8772;42.804;23.426;2022-12-07T02:19:23;74265.09;;;-140.58;100.00
17309;BME280;8772;42.804;23.426;2022-12-07T02:22:00;74261.00;;;-140.58;100.00
17309;BME280;8772;42.804;23.426;2022-12-07T02:24:45;74275.38;;;-140.58;100.00
17309;BME280;8772;42.804;23.426;2022-12-07T02:27:34;74285.63;;;-140.58;100.00
17309;BME280;8772;42.804;23.426;2022-12-07T02:30:06;74295.88;;;-140.58;100.00
17309;BME280;8772;42.804;23.426;2022-12-07T02:32:42;74302.03;;;-140.58;100.00
17309;BME280;8772;42.804;23.426;2022-12-07T02:35:14;74314.34;;;-140.58;100.00
17309;BME280;8772;42.804;23.426;2022-12-07T02:37:50;74318.44;;;-140.58;100.00
17309;BME280;8772;42.804;23.426;2022-12-07T02:40:22;74308.19;;;-140.58;100.00
17309;BME280;8772;42.804;23.426;2022-12-07T02:42:57;74330.75;;;-140.58;100.00
17309;BME280;8772;42.804;23.426;2022-12-07T02:45:27;74345.13;;;-140.58;100.00
17309;BME280;8772;42.804;23.426;2022-12-07T02:47:58;74338.97;;;-140.58;100.00
17309;BME280;8772;42.804;23.426;2022-12-07T02:50:26;74345.13;;;-140.58;100.00
17309;BME280;8772;42.804;23.426;2022-12-07T02:52:53;74363.59;;;-140.58;100.00
17309;BME280;8772;42.804;23.426;2022-12-07T02:55:25;74363.59;;;-140.58;100.00
17309;BME280;8772;42.804;23.426;2022-12-07T02:58:17;74380.00;;;-140.58;100.00
17309;BME280;8772;42.804;23.426;2022-12-07T03:00:54;74367.69;;;-140.58;100.00
17309;BME280;8772;42.804;23.426;2022-12-07T03:03:24;74355.38;;;-140.58;100.00
17309;BME280;8772;42.804;23.426;2022-12-07T03:06:10;74369.75;;;-140.58;100.00
17309;BME280;8772;42.804;23.426;2022-12-07T03:08:51;74355.38;;;-140.58;100.00
17309;BME280;8772;42.804;23.426;2022-12-07T03:11:24;74355.38;;;-140.58;100.00
17309;BME280;8772;42.804;23.426;2022-12-07T03:13:59;74359.50;;;-140.58;100.00
17309;BME280;8772;42.804;23.426;2022-12-07T03:16:33;74359.50;;;-140.58;100.00
17309;BME280;8772;42.804;23.426;2022-12-07T03:19:04;74353.34;;;-140.58;100.00
17309;BME280;8772;42.804;23.426;2022-12-07T03:21:37;74355.38;;;-140.58;100.00
17309;BME280;8772;42.804;23.426;2022-12-07T03:24:09;74355.38;;;-140.58;100.00
17309;BME280;8772;42.804;23.426;2022-12-07T03:26:42;74343.06;;;-140.58;100.00
17309;BME280;8772;42.804;23.426;2022-12-07T03:29:14;74371.81;;;-140.58;100.00
17309;BME280;8772;42.804;23.426;2022-12-07T03:31:46;74388.22;;;-140.58;100.00
17309;BME280;8772;42.804;23.426;2022-12-07T03:34:16;74384.13;;;-140.58;100.00
17309;BME280;8772;42.804;23.426;2022-12-07T03:36:50;74398.47;;;-140.58;100.00
17309;BME280;8772;42.804;23.426;2022-12-07T03:39:23;74398.47;;;-140.58;100.00
17309;BME280;8772;42.804;23.426;2022-12-07T03:41:53;74404.63;;;-140.58;100.00
17309;BME280;8772;42.804;23.426;2022-12-07T03:44:21;74396.41;;;-140.58;100.00
17309;BME280;8772;42.804;23.426;2022-12-07T03:46:59;74400.53;;;-140.58;100.00
17309;BME280;8772;42.804;23.426;2022-12-07T03:49:32;74396.41;;;-140.58;100.00
17309;BME280;8772;42.804;23.426;2022-12-07T03:52:14;74402.56;;;-140.58;100.00
17309;BME280;8772;42.804;23.426;2022-12-07T03:54:48;74423.09;;;-140.58;100.00
17309;BME280;8772;42.804;23.426;2022-12-07T03:57:16;74406.69;;;-140.58;100.00
17309;BME280;8772;42.804;23.426;2022-12-07T03:59:44;74388.22;;;-140.58;100.00
17309;BME280;8772;42.804;23.426;2022-12-07T04:02:13;74402.56;;;-140.58;100.00
17309;BME280;8772;42.804;23.426;2022-12-07T04:04:41;74380.00;;;-140.58;100.00
17309;BME280;8772;42.804;23.426;2022-12-07T04:07:08;74404.63;;;-140.58;100.00
17309;BME280;8772;42.804;23.426;2022-12-07T04:09:36;74408.72;;;-140.58;100.00
17309;BME280;8772;42.804;23.426;2022-12-07T04:12:03;74402.56;;;-140.58;100.00
17309;BME280;8772;42.804;23.426;2022-12-07T04:14:30;74416.94;;;-140.58;100.00
17309;BME280;8772;42.804;23.426;2022-12-07T04:16:58;74408.72;;;-140.58;100.00
17309;BME280;8772;42.804;23.426;2022-12-07T04:19:29;74375.91;;;-140.58;100.00
17309;BME280;8772;42.804;23.426;2022-12-07T04:21:56;74400.53;;;-140.58;100.00
17309;BME280;8772;42.804;23.426;2022-12-07T04:24:24;74398.47;;;-140.58;100.00
17309;BME280;8772;42.804;23.426;2022-12-07T04:26:51;74412.84;;;-140.58;100.00
17309;BME280;8772;42.804;23.426;2022-12-07T04:29:18;74412.84;;;-140.58;100.00
17309;BME280;8772;42.804;23.426;2022-12-07T04:31:45;74404.63;;;-140.58;100.00
17309;BME280;8772;42.804;23.426;2022-12-07T04:34:13;74429.25;;;-140.58;100.00
17309;BME280;8772;42.804;23.426;2022-12-07T04:36:42;74414.88;;;-140.58;100.00
17309;BME280;8772;42.804;23.426;2022-12-07T04:39:17;74408.72;;;-140.58;100.00
17309;BME280;8772;42.804;23.426;2022-12-07T04:41:45;74429.25;;;-140.58;100.00
17309;BME280;8772;42.804;23.426;2022-12-07T04:44:13;74451.81;;;-140.58;100.00
17309;BME280;8772;42.804;23.426;2022-12-07T04:46:40;74462.06;;;-140.58;100.00
17309;BME280;8772;42.804;23.426;2022-12-07T04:49:08;74453.88;;;-140.58;100.00
17309;BME280;8772;42.804;23.426;2022-12-07T04:51:35;74478.50;;;-140.58;100.00
17309;BME280;8772;42.804;23.426;2022-12-07T04:54:03;74482.59;;;-140.58;100.00
17309;BME280;8772;42.804;23.426;2022-12-07T04:56:31;74470.28;;;-140.58;100.00
17309;BME280;8772;42.804;23.426;2022-12-07T04:58:58;74482.59;;;-140.58;100.00
17309;BME280;8772;42.804;23.426;2022-12-07T05:01:25;74470.28;;;-140.58;100.00
17309;BME280;8772;42.804;23.426;2022-12-07T05:03:52;74474.38;;;-140.58;100.00
17309;BME280;8772;42.804;23.426;2022-12-07T05:06:19;74494.91;;;-140.58;100.00
17309;BME280;8772;42.804;23.426;2022-12-07T05:08:46;74499.00;;;-140.58;100.00
17309;BME280;8772;42.804;23.426;2022-12-07T05:11:15;74513.38;;;-140.58;100.00
17309;BME280;8772;42.804;23.426;2022-12-07T05:13:55;74505.16;;;-140.58;100.00
17309;BME280;8772;42.804;23.426;2022-12-07T05:16:22;74517.47;;;-140.58;100.00
17309;BME280;8772;42.804;23.426;2022-12-07T05:18:49;74511.31;;;-140.58;100.00
17309;BME280;8772;42.804;23.426;2022-12-07T05:21:16;74511.31;;;-140.58;100.00
17309;BME280;8772;42.804;23.426;2022-12-07T05:23:43;74523.63;;;-140.58;100.00
17309;BME280;8772;42.804;23.426;2022-12-07T05:26:10;74529.78;;;-140.58;100.00
17309;BME280;8772;42.804;23.426;2022-12-07T05:28:38;74546.22;;;-140.58;100.00
17309;BME280;8772;42.804;23.426;2022-12-07T05:31:05;74560.56;;;-140.58;100.00
17309;BME280;8772;42.804;23.426;2022-12-07T05:33:32;74544.16;;;-140.58;100.00
17309;BME280;8772;42.804;23.426;2022-12-07T05:35:59;74535.94;;;-140.58;100.00
17309;BME280;8772;42.804;23.426;2022-12-07T05:38:31;74535.94;;;-140.58;100.00
17309;BME280;8772;42.804;23.426;2022-12-07T05:41:00;74529.78;;;-140.58;100.00
17309;BME280;8772;42.804;23.426;2022-12-07T05:43:28;74535.94;;;-140.58;100.00
17309;BME280;8772;42.804;23.426;2022-12-07T05:45:56;74515.44;;;-140.58;100.00
17309;BME280;8772;42.804;23.426;2022-12-07T05:48:24;74509.28;;;-140.58;100.00
17309;BME280;8772;42.804;23.426;2022-12-07T05:50:51;74496.97;;;-140.58;100.00
17309;BME280;8772;42.804;23.426;2022-12-07T05:53:19;74474.38;;;-140.58;100.00
17309;BME280;8772;42.804;23.426;2022-12-07T05:55:46;74472.34;;;-140.58;100.00
17309;BME280;8772;42.804;23.426;2022-12-07T05:58:12;74474.38;;;-140.58;100.00
17309;BME280;8772;42.804;23.426;2022-12-07T06:00:58;74482.59;;;-140.58;100.00
17309;BME280;8772;42.804;23.426;2022-12-07T06:03:25;74484.66;;;-140.58;100.00
17309;BME280;8772;42.804;23.426;2022-12-07T06:05:52;74482.59;;;-140.58;100.00
17309;BME280;8772;42.804;23.426;2022-12-07T06:08:19;74480.53;;;-140.58;100.00
17309;BME280;8772;42.804;23.426;2022-12-07T06:10:47;74478.50;;;-140.58;100.00
17309;BME280;8772;42.804;23.426;2022-12-07T06:13:36;74464.13;;;-140.58;100.00
17309;BME280;8772;42.804;23.426;2022-12-07T06:16:04;74460.03;;;-140.58;100.00
17309;BME280;8772;42.804;23.426;2022-12-07T06:18:30;74460.03;;;-140.58;100.00
17309;BME280;8772;42.804;23.426;2022-12-07T06:20:57;74449.78;;;-140.58;100.00
17309;BME280;8772;42.804;23.426;2022-12-07T06:23:24;74431.31;;;-140.58;100.00
17309;BME280;8772;42.804;23.426;2022-12-07T06:25:51;74437.47;;;-140.58;100.00
17309;BME280;8772;42.804;23.426;2022-12-07T06:28:18;74433.34;;;-140.58;100.00
17309;BME280;8772;42.804;23.426;2022-12-07T06:30:45;74447.72;;;-140.58;100.00
17309;BME280;8772;42.804;23.426;2022-12-07T06:33:13;74439.50;;;-140.58;100.00
17309;BME280;8772;42.804;23.426;2022-12-07T06:35:41;74429.25;;;-140.58;100.00
17309;BME280;8772;42.804;23.426;2022-12-07T06:38:07;74410.78;;;-140.58;100.00
17309;BME280;8772;42.804;23.426;2022-12-07T06:40:34;74396.41;;;-140.58;100.00
17309;BME280;8772;42.804;23.426;2022-12-07T06:43:01;74384.13;;;-140.58;100.00
17309;BME280;8772;42.804;23.426;2022-12-07T06:45:29;74371.81;;;-140.58;100.00
17309;BME280;8772;42.804;23.426;2022-12-07T06:47:57;74363.59;;;-140.58;100.00
17309;BME280;8772;42.804;23.426;2022-12-07T06:50:25;74359.50;;;-140.58;100.00
17309;BME280;8772;42.804;23.426;2022-12-07T06:52:52;74345.13;;;-140.58;100.00
17309;BME280;8772;42.804;23.426;2022-12-07T06:55:19;74349.22;;;-140.58;100.00
17309;BME280;8772;42.804;23.426;2022-12-07T06:57:48;74363.59;;;-140.58;100.00
17309;BME280;8772;42.804;23.426;2022-12-07T07:00:16;74347.19;;;-140.58;100.00
17309;BME280;8772;42.804;23.426;2022-12-07T07:02:45;74330.75;;;-140.58;100.00
17309;BME280;8772;42.804;23.426;2022-12-07T07:05:15;74326.66;;;-140.58;100.00
17309;BME280;8772;42.804;23.426;2022-12-07T07:07:49;74320.50;;;-140.58;100.00
17309;BME280;8772;42.804;23.426;2022-12-07T07:10:16;74314.34;;;-140.58;100.00
17309;BME280;8772;42.804;23.426;2022-12-07T07:12:43;74328.72;;;-140.58;100.00
17309;BME280;8772;42.804;23.426;2022-12-07T07:15:10;74314.34;;;-140.58;100.00
17309;BME280;8772;42.804;23.426;2022-12-07T07:17:37;74310.25;;;-140.58;100.00
17309;BME280;8772;42.804;23.426;2022-12-07T07:20:05;74297.94;;;-140.58;100.00
17309;BME280;8772;42.804;23.426;2022-12-07T07:22:37;74293.84;;;-140.58;100.00
17309;BME280;8772;42.804;23.426;2022-12-07T07:25:06;74287.69;;;-140.58;100.00
17309;BME280;8772;42.804;23.426;2022-12-07T07:27:33;74273.31;;;-140.58;100.00
17309;BME280;8772;42.804;23.426;2022-12-07T07:29:59;74261.00;;;-140.58;100.00
17309;BME280;8772;42.804;23.426;2022-12-07T07:32:26;74246.66;;;-140.58;100.00
17309;BME280;8772;42.804;23.426;2022-12-07T07:34:53;74240.50;;;-140.58;100.00
17309;BME280;8772;42.804;23.426;2022-12-07T07:37:20;74228.19;;;-140.58;100.00
17309;BME280;8772;42.804;23.426;2022-12-07T07:39:47;74217.91;;;-140.58;100.00
17309;BME280;8772;42.804;23.426;2022-12-07T07:42:15;74213.81;;;-140.58;100.00
17309;BME280;8772;42.804;23.426;2022-12-07T07:44:42;74199.47;;;-140.58;100.00
17309;BME280;8772;42.804;23.426;2022-12-07T07:47:09;74191.25;;;-140.58;100.00
17309;BME280;8772;42.804;23.426;2022-12-07T07:49:36;74187.16;;;-140.58;100.00
17309;BME280;8772;42.804;23.426;2022-12-07T07:52:03;74178.94;;;-140.58;100.00
17309;BME280;8772;42.804;23.426;2022-12-07T07:54:32;74168.69;;;-140.58;100.00
17309;BME280;8772;42.804;23.426;2022-12-07T07:56:59;74162.53;;;-140.58;100.00
17309;BME280;8772;42.804;23.426;2022-12-07T07:59:27;74154.31;;;-140.58;100.00
17309;BME280;8772;42.804;23.426;2022-12-07T08:01:54;74150.22;;;-140.58;100.00
17309;BME280;8772;42.804;23.426;2022-12-07T08:04:21;74150.22;;;-140.58;100.00
17309;BME280;8772;42.804;23.426;2022-12-07T08:06:48;74139.97;;;-140.58;100.00
17309;BME280;8772;42.804;23.426;2022-12-07T08:09:15;74142.00;;;-140.58;100.00
17309;BME280;8772;42.804;23.426;2022-12-07T08:11:42;74146.09;;;-140.58;100.00
17309;BME280;8772;42.804;23.426;2022-12-07T08:14:10;74137.91;;;-140.58;100.00
17309;BME280;8772;42.804;23.426;2022-12-07T08:16:39;74133.81;;;-140.58;100.00
17309;BME280;8772;42.804;23.426;2022-12-07T08:19:06;74131.75;;;-140.58;100.00
17309;BME280;8772;42.804;23.426;2022-12-07T08:21:33;74133.81;;;-140.58;100.00
17309;BME280;8772;42.804;23.426;2022-12-07T08:24:00;74142.00;;;-140.58;100.00
17309;BME280;8772;42.804;23.426;2022-12-07T08:26:27;74131.75;;;-140.58;100.00
17309;BME280;8772;42.804;23.426;2022-12-07T08:28:54;74119.44;;;-140.58;100.00
17309;BME280;8772;42.804;23.426;2022-12-07T08:31:20;74117.38;;;-140.58;100.00
17309;BME280;8772;42.804;23.426;2022-12-07T08:33:49;74148.16;;;-140.58;100.00
17309;BME280;8772;42.804;23.426;2022-12-07T08:36:17;74127.66;;;-140.58;100.00
17309;BME280;8772;42.804;23.426;2022-12-07T08:38:44;74113.28;;;-140.58;100.00
17309;BME280;8772;42.804;23.426;2022-12-07T08:41:11;74100.97;;;-140.58;100.00
17309;BME280;8772;42.804;23.426;2022-12-07T08:43:37;74111.22;;;-140.58;100.00
17309;BME280;8772;42.804;23.426;2022-12-07T08:46:08;74115.34;;;-140.58;100.00
17309;BME280;8772;42.804;23.426;2022-12-07T08:48:39;74088.66;;;-140.58;100.00
17309;BME280;8772;42.804;23.426;2022-12-07T08:51:09;74072.25;;;-140.58;100.00
17309;BME280;8772;42.804;23.426;2022-12-07T08:53:37;74064.03;;;-140.58;100.00
17309;BME280;8772;42.804;23.426;2022-12-07T08:56:06;74059.94;;;-140.58;100.00
17309;BME280;8772;42.804;23.426;2022-12-07T08:58:35;74043.53;;;-140.58;100.00
17309;BME280;8772;42.804;23.426;2022-12-07T09:01:03;74041.47;;;-140.58;100.00
17309;BME280;8772;42.804;23.426;2022-12-07T09:03:31;74027.13;;;-140.58;100.00
17309;BME280;8772;42.804;23.426;2022-12-07T09:05:59;74027.13;;;-140.58;100.00
17309;BME280;8772;42.804;23.426;2022-12-07T09:08:30;74018.91;;;-140.58;100.00
17309;BME280;8772;42.804;23.426;2022-12-07T09:10:59;74006.59;;;-140.58;100.00
17309;BME280;8772;42.804;23.426;2022-12-07T09:13:26;74006.59;;;-140.58;100.00
17309;BME280;8772;42.804;23.426;2022-12-07T09:15:52;74006.59;;;-140.58;100.00
17309;BME280;8772;42.804;23.426;2022-12-07T09:18:19;73994.28;;;-140.58;100.00
17309;BME280;8772;42.804;23.426;2022-12-07T09:20:46;73986.09;;;-140.58;100.00
17309;BME280;8772;42.804;23.426;2022-12-07T09:23:13;73986.09;;;-140.58;100.00
17309;BME280;8772;42.804;23.426;2022-12-07T09:25:41;73973.78;;;-140.58;100.00
17309;BME280;8772;42.804;23.426;2022-12-07T09:28:08;73969.69;;;-140.58;100.00
17309;BME280;8772;42.804;23.426;2022-12-07T09:30:37;73977.88;;;-140.58;100.00
17309;BME280;8772;42.804;23.426;2022-12-07T09:33:04;73979.94;;;-140.58;100.00
17309;BME280;8772;42.804;23.426;2022-12-07T09:35:30;73971.72;;;-140.58;100.00
17309;BME280;8772;42.804;23.426;2022-12-07T09:37:57;73947.09;;;-140.58;100.00
17309;BME280;8772;42.804;23.426;2022-12-07T09:40:24;73945.06;;;-140.58;100.00
17309;BME280;8772;42.804;23.426;2022-12-07T09:42:54;73947.09;;;-140.58;100.00
17309;BME280;8772;42.804;23.426;2022-12-07T09:45:24;73965.56;;;-140.58;100.00
17309;BME280;8772;42.804;23.426;2022-12-07T09:47:53;73947.09;;;-140.58;100.00
17309;BME280;8772;42.804;23.426;2022-12-07T09:50:23;73949.16;;;-140.58;100.00
17309;BME280;8772;42.804;23.426;2022-12-07T09:52:52;73916.34;;;-140.58;100.00
17309;BME280;8772;42.804;23.426;2022-12-07T09:55:26;73914.28;;;-140.58;100.00
17309;BME280;8772;42.804;23.426;2022-12-07T09:57:57;73897.88;;;-140.58;100.00
17309;BME280;8772;42.804;23.426;2022-12-07T10:00:26;73883.50;;;-140.58;100.00
17309;BME280;8772;42.804;23.426;2022-12-07T10:02:56;73879.41;;;-140.58;100.00
17309;BME280;8772;42.804;23.426;2022-12-07T10:05:26;73873.25;;;-140.58;100.00
17309;BME280;8772;42.804;23.426;2022-12-07T10:07:54;73865.03;;;-140.58;100.00
17309;BME280;8772;42.804;23.426;2022-12-07T10:10:25;73858.91;;;-140.58;100.00
17309;BME280;8772;42.804;23.426;2022-12-07T10:12:58;73830.16;;;-140.58;100.00
17309;BME280;8772;42.804;23.426;2022-12-07T10:15:43;73834.28;;;-140.58;100.00
17309;BME280;8772;42.804;23.426;2022-12-07T10:18:35;73836.31;;;-140.58;100.00
17309;BME280;8772;42.804;23.426;2022-12-07T10:21:11;73801.44;;;-140.58;100.00
17309;BME280;8772;42.804;23.426;2022-12-07T10:23:40;73817.88;;;-140.58;100.00
17309;BME280;8772;42.804;23.426;2022-12-07T10:26:27;73785.03;;;-140.58;100.00
17309;BME280;8772;42.804;23.426;2022-12-07T10:28:58;73770.69;;;-140.58;100.00
17309;BME280;8772;42.804;23.426;2022-12-07T10:31:25;73735.81;;;-140.58;100.00
17309;BME280;8772;42.804;23.426;2022-12-07T10:33:54;73741.97;;;-140.58;100.00
17309;BME280;8772;42.804;23.426;2022-12-07T10:36:24;73729.66;;;-140.58;100.00
17309;BME280;8772;42.804;23.426;2022-12-07T10:38:53;73723.50;;;-140.58;100.00
17309;BME280;8772;42.804;23.426;2022-12-07T10:41:20;73715.28;;;-140.58;100.00
17309;BME280;8772;42.804;23.426;2022-12-07T10:43:51;73692.72;;;-140.58;100.00
17309;BME280;8772;42.804;23.426;2022-12-07T10:52:54;73678.38;;;-140.58;100.00
17309;BME280;8772;42.804;23.426;2022-12-07T10:55:28;73668.09;;;-140.58;100.00
17309;BME280;8772;42.804;23.426;2022-12-07T10:58:14;73657.84;;;-140.58;100.00
17309;BME280;8772;42.804;23.426;2022-12-07T11:00:54;73641.44;;;-140.58;100.00
17309;BME280;8772;42.804;23.426;2022-12-07T11:03:42;73649.66;;;-140.58;100.00
17309;BME280;8772;42.804;23.426;2022-12-07T11:06:22;73620.94;;;-140.58;100.00
17309;BME280;8772;42.804;23.426;2022-12-07T11:09:00;73612.72;;;-140.58;100.00
17309;BME280;8772;42.804;23.426;2022-12-07T11:11:34;73600.41;;;-140.58;100.00
17309;BME280;8772;42.804;23.426;2022-12-07T11:14:08;73581.97;;;-140.58;100.00
17309;BME280;8772;42.804;23.426;2022-12-07T11:16:55;73586.06;;;-140.58;100.00
17309;BME280;8772;42.804;23.426;2022-12-07T11:19:47;73567.59;;;-140.58;100.00
17309;BME280;8772;42.804;23.426;2022-12-07T11:22:24;73559.38;;;-140.58;100.00
17309;BME280;8772;42.804;23.426;2022-12-07T11:25:01;73555.28;;;-140.58;100.00
17309;BME280;8772;42.804;23.426;2022-12-07T11:27:34;73520.41;;;-140.58;100.00
17309;BME280;8772;42.804;23.426;2022-12-07T11:30:12;73497.84;;;-140.58;100.00
17309;BME280;8772;42.804;23.426;2022-12-07T11:32:49;73483.50;;;-140.58;100.00
17309;BME280;8772;42.804;23.426;2022-12-07T11:35:24;73485.53;;;-140.58;100.00
17309;BME280;8772;42.804;23.426;2022-12-07T11:38:01;73493.75;;;-140.58;100.00
17309;BME280;8772;42.804;23.426;2022-12-07T11:40:31;73489.66;;;-140.58;100.00
17309;BME280;8772;42.804;23.426;2022-12-07T11:43:05;73467.09;;;-140.58;100.00
17309;BME280;8772;42.804;23.426;2022-12-07T11:45:39;73448.63;;;-140.58;100.00
17309;BME280;8772;42.804;23.426;2022-12-07T11:48:12;73432.22;;;-140.58;100.00
17309;BME280;8772;42.804;23.426;2022-12-07T11:50:45;73413.75;;;-140.58;100.00
17309;BME280;8772;42.804;23.426;2022-12-07T11:53:19;73419.91;;;-140.58;100.00
17309;BME280;8772;42.804;23.426;2022-12-07T11:55:51;73395.28;;;-140.58;100.00
17309;BME280;8772;42.804;23.426;2022-12-07T11:58:28;73366.56;;;-140.58;100.00
17309;BME280;8772;42.804;23.426;2022-12-07T12:01:12;73341.97;;;-140.58;100.00
17309;BME280;8772;42.804;23.426;2022-12-07T12:03:44;73339.91;;;-140.58;100.00
17309;BME280;8772;42.804;23.426;2022-12-07T12:06:12;73344.00;;;-140.58;100.00
17309;BME280;8772;42.804;23.426;2022-12-07T12:08:43;73313.25;;;-140.58;100.00
17309;BME280;8772;42.804;23.426;2022-12-07T12:11:20;73298.88;;;-140.58;100.00
17309;BME280;8772;42.804;23.426;2022-12-07T12:14:17;73270.16;;;-140.58;100.00
17309;BME280;8772;42.804;23.426;2022-12-07T12:19:35;73270.16;;;-140.58;100.00
17309;BME280;8772;42.804;23.426;2022-12-07T12:22:10;73268.13;;;-140.58;100.00
17309;BME280;8772;42.804;23.426;2022-12-07T12:24:42;73243.50;;;-140.58;100.00
17309;BME280;8772;42.804;23.426;2022-12-07T12:27:18;73227.09;;;-140.58;100.00
17309;BME280;8772;42.804;23.426;2022-12-07T12:29:53;73218.91;;;-140.58;100.00
17309;BME280;8772;42.804;23.426;2022-12-07T12:32:22;73194.28;;;-140.58;100.00
17309;BME280;8772;42.804;23.426;2022-12-07T12:35:17;73181.97;;;-140.58;100.00
17309;BME280;8772;42.804;23.426;2022-12-07T12:37:47;73181.97;;;-140.58;100.00
17309;BME280;8772;42.804;23.426;2022-12-07T12:40:42;73177.88;;;-140.58;100.00
17309;BME280;8772;42.804;23.426;2022-12-07T12:43:44;73202.47;;;-140.58;100.00
17309;BME280;8772;42.804;23.426;2022-12-07T12:46:46;73235.31;;;-140.58;100.00
17309;BME280;8772;42.804;23.426;2022-12-07T12:49:36;73210.69;;;-140.58;100.00
17309;BME280;8772;42.804;23.426;2022-12-07T12:55:15;73218.91;;;-140.58;100.00
17309;BME280;8772;42.804;23.426;2022-12-07T12:57:48;73214.78;;;-140.58;100.00
17309;BME280;8772;42.804;23.426;2022-12-07T13:00:34;73243.50;;;-140.58;100.00
17309;BME280;8772;42.804;23.426;2022-12-07T13:03:22;73216.84;;;-140.58;100.00
17309;BME280;8772;42.804;23.426;2022-12-07T13:06:17;73229.16;;;-140.58;100.00